sensor_id;sensor_type;location;lat;lon;timestamp;P1;durP1;ratioP1;P2;durP2;ratioP2
43413;SDS011;73638;49.676;8.606;2024-02-28T00:01:12;10.7369;;;17.3903;;
43413;SDS011;73638;49.676;8.606;2024-02-28T00:06:19;10.5671;;;18.4606;;
43413;SDS011;73638;49.676;8.606;2024-02-28T00:11:25;10.7817;;;17.4519;;
43413;SDS011;73638;49.676;8.606;2024-02-28T00:16:32;11.6797;;;18.2893;;
43413;SDS011;73638;49.676;8.606;2024-02-28T00:21:38;10.9625;;;17.5242;;
43413;SDS011;73638;49.676;8.606;2024-02-28T00:26:45;10.6741;;;19.7406;;
43413;SDS011;73638;49.676;8.606;2024-02-28T00:31:52;11.2349;;;21.3101;;
43413;SDS011;73638;49.676;8.606;2024-02-28T00:36:58;11.8753;;;20.7272;;
43413;SDS011;73638;49.676;8.606;2024-02-28T00:42:07;10.5507;;;18.417;;
43413;SDS011;73638;49.676;8.606;2024-02-28T00:47:13;9.9869;;;18.1764;;
43413;SDS011;73638;49.676;8.606;2024-02-28T00:52:20;11.1391;;;18.6344;;
43413;SDS011;73638;49.676;8.606;2024-02-28T00:57:26;10.7864;;;20.9732;;
43413;SDS011;73638;49.676;8.606;2024-02-28T01:02:33;11.5598;;;21.299;;
43413;SDS011;73638;49.676;8.606;2024-02-28T01:07:39;11.9431;;;20.5644;;
43413;SDS011;73638;49.676;8.606;2024-02-28T01:12:46;12.2156;;;21.3829;;
43413;SDS011;73638;49.676;8.606;2024-02-28T01:17:53;13.1095;;;21.2207;;
43413;SDS011;73638;49.676;8.606;2024-02-28T01:23:00;12.622;;;23.9001;;
43413;SDS011;73638;49.676;8.606;2024-02-28T01:28:06;11.8135;;;19.9824;;
43413;SDS011;73638;49.676;8.606;2024-02-28T01:33:13;12.9842;;;24.3032;;
43413;SDS011;73638;49.676;8.606;2024-02-28T01:38:19;12.4461;;;21.3487;;
43413;SDS011;73638;49.676;8.606;2024-02-28T01:43:26;12.8395;;;21.3469;;
43413;SDS011;73638;49.676;8.606;2024-02-28T01:48:32;12.5507;;;21.6279;;
43413;SDS011;73638;49.676;8.606;2024-02-28T01:53:39;12.7695;;;24.954;;
43413;SDS011;73638;49.676;8.606;2024-02-28T01:58:46;13.9589;;;24.636;;
43413;SDS011;73638;49.676;8.606;2024-02-28T02:03:52;13.2228;;;21.801;;
43413;SDS011;73638;49.676;8.606;2024-02-28T02:08:58;14.0538;;;25.4684;;
43413;SDS011;73638;49.676;8.606;2024-02-28T02:14:05;13.5985;;;25.4978;;
43413;SDS011;73638;49.676;8.606;2024-02-28T02:19:12;13.5972;;;24.2906;;
43413;SDS011;73638;49.676;8.606;2024-02-28T02:24:18;13.1412;;;23.3445;;
43413;SDS011;73638;49.676;8.606;2024-02-28T02:29:25;13.0773;;;24.4919;;
43413;SDS011;73638;49.676;8.606;2024-02-28T02:34:31;13.7781;;;24.0384;;
43413;SDS011;73638;49.676;8.606;2024-02-28T02:39:38;14.7402;;;25.8643;;
43413;SDS011;73638;49.676;8.606;2024-02-28T02:44:44;13.7975;;;24.3679;;
43413;SDS011;73638;49.676;8.606;2024-02-28T02:49:51;13.2067;;;24.7729;;
43413;SDS011;73638;49.676;8.606;2024-02-28T02:54:58;13.6611;;;24.5827;;
43413;SDS011;73638;49.676;8.606;2024-02-28T03:00:07;12.8181;;;23.3244;;
43413;SDS011;73638;49.676;8.606;2024-02-28T03:05:11;13.9186;;;25.759;;
43413;SDS011;73638;49.676;8.606;2024-02-28T03:10:18;14.3034;;;27.8295;;
43413;SDS011;73638;49.676;8.606;2024-02-28T03:15:24;14.1533;;;28.1455;;
43413;SDS011;73638;49.676;8.606;2024-02-28T03:20:33;13.4008;;;25.8736;;
43413;SDS011;73638;49.676;8.606;2024-02-28T03:25:39;13.6422;;;26.6784;;
43413;SDS011;73638;49.676;8.606;2024-02-28T03:30:46;13.4657;;;25.0332;;
43413;SDS011;73638;49.676;8.606;2024-02-28T03:35:53;13.9785;;;26.0859;;
43413;SDS011;73638;49.676;8.606;2024-02-28T03:40:59;13.2825;;;25.2707;;
43413;SDS011;73638;49.676;8.606;2024-02-28T03:46:05;14.5311;;;27.102;;
43413;SDS011;73638;49.676;8.606;2024-02-28T03:51:12;14.1973;;;25.4885;;
43413;SDS011;73638;49.676;8.606;2024-02-28T03:56:22;13.7952;;;27.1119;;
43413;SDS011;73638;49.676;8.606;2024-02-28T04:01:25;13.808;;;25.2263;;
43413;SDS011;73638;49.676;8.606;2024-02-28T04:06:32;14.3975;;;27.2307;;
43413;SDS011;73638;49.676;8.606;2024-02-28T04:11:38;14.1918;;;26.2755;;
43413;SDS011;73638;49.676;8.606;2024-02-28T04:16:45;14.2615;;;25.3398;;
43413;SDS011;73638;49.676;8.606;2024-02-28T04:21:52;15.7833;;;28.5228;;
43413;SDS011;73638;49.676;8.606;2024-02-28T04:26:58;14.8122;;;28.1086;;
43413;SDS011;73638;49.676;8.606;2024-02-28T04:32:05;14.2922;;;26.0133;;
43413;SDS011;73638;49.676;8.606;2024-02-28T04:37:11;15.9442;;;31.5605;;
43413;SDS011;73638;49.676;8.606;2024-02-28T04:42:18;15.2104;;;28.1316;;
43413;SDS011;73638;49.676;8.606;2024-02-28T04:47:36;15.7596;;;27.6434;;
43413;SDS011;73638;49.676;8.606;2024-02-28T04:52:31;14.5115;;;28.1754;;
43413;SDS011;73638;49.676;8.606;2024-02-28T04:57:38;15.0775;;;29.0674;;
43413;SDS011;73638;49.676;8.606;2024-02-28T05:02:45;13.9672;;;26.3052;;
43413;SDS011;73638;49.676;8.606;2024-02-28T05:07:51;15.0325;;;27.5331;;
43413;SDS011;73638;49.676;8.606;2024-02-28T05:12:58;15.8414;;;31.5302;;
43413;SDS011;73638;49.676;8.606;2024-02-28T05:18:04;15.3824;;;30.4662;;
43413;SDS011;73638;49.676;8.606;2024-02-28T05:23:11;16.4996;;;31.8814;;
43413;SDS011;73638;49.676;8.606;2024-02-28T05:28:18;18.0622;;;32.7633;;
43413;SDS011;73638;49.676;8.606;2024-02-28T05:33:24;17.7476;;;33.2425;;
43413;SDS011;73638;49.676;8.606;2024-02-28T05:38:31;17.5852;;;32.0783;;
43413;SDS011;73638;49.676;8.606;2024-02-28T05:43:37;16.8221;;;32.9995;;
43413;SDS011;73638;49.676;8.606;2024-02-28T05:48:44;15.6753;;;29.6389;;
43413;SDS011;73638;49.676;8.606;2024-02-28T05:53:50;15.9369;;;31.0601;;
43413;SDS011;73638;49.676;8.606;2024-02-28T05:58:57;16.5273;;;32.8072;;
43413;SDS011;73638;49.676;8.606;2024-02-28T06:04:04;18.4327;;;35.6196;;
43413;SDS011;73638;49.676;8.606;2024-02-28T06:09:10;14.7902;;;29.8864;;
43413;SDS011;73638;49.676;8.606;2024-02-28T06:14:21;14.5071;;;29.4548;;
43413;SDS011;73638;49.676;8.606;2024-02-28T06:19:23;15.7686;;;29.6889;;
43413;SDS011;73638;49.676;8.606;2024-02-28T06:24:30;16.2883;;;32.8014;;
43413;SDS011;73638;49.676;8.606;2024-02-28T06:29:36;17.617;;;32.9133;;
43413;SDS011;73638;49.676;8.606;2024-02-28T06:34:43;17.6145;;;36.5709;;
43413;SDS011;73638;49.676;8.606;2024-02-28T06:39:49;19.1139;;;39.0172;;
43413;SDS011;73638;49.676;8.606;2024-02-28T06:44:56;17.853;;;34.2497;;
43413;SDS011;73638;49.676;8.606;2024-02-28T06:50:03;15.4137;;;31.6242;;
43413;SDS011;73638;49.676;8.606;2024-02-28T06:55:09;16.0508;;;30.0436;;
43413;SDS011;73638;49.676;8.606;2024-02-28T07:00:16;16.1235;;;32.6459;;
43413;SDS011;73638;49.676;8.606;2024-02-28T07:05:23;15.5516;;;29.6732;;
43413;SDS011;73638;49.676;8.606;2024-02-28T07:10:29;16.7583;;;35.4939;;
43413;SDS011;73638;49.676;8.606;2024-02-28T07:15:36;18.4033;;;35.0564;;
43413;SDS011;73638;49.676;8.606;2024-02-28T07:20:42;17.8529;;;35.8274;;
43413;SDS011;73638;49.676;8.606;2024-02-28T07:25:49;18.0962;;;36.5324;;
43413;SDS011;73638;49.676;8.606;2024-02-28T07:30:56;17.5942;;;32.1126;;
43413;SDS011;73638;49.676;8.606;2024-02-28T07:36:03;19.0382;;;37.1882;;
43413;SDS011;73638;49.676;8.606;2024-02-28T07:41:14;17.3633;;;33.3509;;
43413;SDS011;73638;49.676;8.606;2024-02-28T07:46:16;18.5409;;;34.8546;;
43413;SDS011;73638;49.676;8.606;2024-02-28T07:51:23;18.4901;;;36.2615;;
43413;SDS011;73638;49.676;8.606;2024-02-28T07:56:29;18.0394;;;38.0104;;
43413;SDS011;73638;49.676;8.606;2024-02-28T08:01:36;18.9294;;;33.8262;;
43413;SDS011;73638;49.676;8.606;2024-02-28T08:06:42;17.4543;;;33.1825;;
43413;SDS011;73638;49.676;8.606;2024-02-28T08:11:49;18.0792;;;35.9356;;
43413;SDS011;73638;49.676;8.606;2024-02-28T08:16:56;19.4796;;;40.9791;;
43413;SDS011;73638;49.676;8.606;2024-02-28T08:22:02;19.6089;;;38.9684;;
43413;SDS011;73638;49.676;8.606;2024-02-28T08:27:09;18.8549;;;35.9344;;
43413;SDS011;73638;49.676;8.606;2024-02-28T08:32:16;20.2626;;;43.9179;;
43413;SDS011;73638;49.676;8.606;2024-02-28T08:37:22;18.4437;;;35.5378;;
43413;SDS011;73638;49.676;8.606;2024-02-28T08:42:29;19.1259;;;42.1005;;
43413;SDS011;73638;49.676;8.606;2024-02-28T08:47:35;19.0395;;;35.2693;;
43413;SDS011;73638;49.676;8.606;2024-02-28T08:52:42;18.5364;;;39.6097;;
43413;SDS011;73638;49.676;8.606;2024-02-28T08:57:48;18.379;;;34.1122;;
43413;SDS011;73638;49.676;8.606;2024-02-28T09:02:55;18.4777;;;37.7823;;
43413;SDS011;73638;49.676;8.606;2024-02-28T09:08:02;19.3845;;;39.5889;;
43413;SDS011;73638;49.676;8.606;2024-02-28T09:13:09;19.3104;;;38.9277;;
43413;SDS011;73638;49.676;8.606;2024-02-28T09:18:15;18.6809;;;34.1811;;
43413;SDS011;73638;49.676;8.606;2024-02-28T09:23:23;18.3385;;;33.772;;
43413;SDS011;73638;49.676;8.606;2024-02-28T09:28:28;18.6434;;;40.0337;;
43413;SDS011;73638;49.676;8.606;2024-02-28T09:33:35;18.4176;;;36.3563;;
43413;SDS011;73638;49.676;8.606;2024-02-28T09:38:42;19.6747;;;37.8224;;
43413;SDS011;73638;49.676;8.606;2024-02-28T09:43:48;18.8049;;;36.6117;;
43413;SDS011;73638;49.676;8.606;2024-02-28T09:48:55;18.1721;;;32.4835;;
43413;SDS011;73638;49.676;8.606;2024-02-28T09:54:05;17.8633;;;34.1691;;
43413;SDS011;73638;49.676;8.606;2024-02-28T09:59:09;18.4675;;;34.8149;;
43413;SDS011;73638;49.676;8.606;2024-02-28T10:04:15;19.2148;;;36.5066;;
43413;SDS011;73638;49.676;8.606;2024-02-28T10:09:22;18.5518;;;35.6739;;
43413;SDS011;73638;49.676;8.606;2024-02-28T10:14:28;16.6321;;;31.9362;;
43413;SDS011;73638;49.676;8.606;2024-02-28T10:19:35;18.5235;;;32.674;;
43413;SDS011;73638;49.676;8.606;2024-02-28T10:24:42;17.7647;;;34.1635;;
43413;SDS011;73638;49.676;8.606;2024-02-28T10:29:49;18.2416;;;34.0425;;
43413;SDS011;73638;49.676;8.606;2024-02-28T10:34:56;17.218;;;33.5526;;
43413;SDS011;73638;49.676;8.606;2024-02-28T10:40:03;17.3315;;;32.2864;;
43413;SDS011;73638;49.676;8.606;2024-02-28T10:45:25;17.5248;;;35.1843;;
43413;SDS011;73638;49.676;8.606;2024-02-28T10:50:16;16.0649;;;29.2915;;
43413;SDS011;73638;49.676;8.606;2024-02-28T10:55:23;17.6851;;;31.4235;;
43413;SDS011;73638;49.676;8.606;2024-02-28T11:00:29;17.1516;;;29.8184;;
43413;SDS011;73638;49.676;8.606;2024-02-28T11:05:36;17.4237;;;34.7047;;
43413;SDS011;73638;49.676;8.606;2024-02-28T11:10:42;15.7173;;;28.9979;;
43413;SDS011;73638;49.676;8.606;2024-02-28T11:15:49;16.6496;;;30.6779;;
43413;SDS011;73638;49.676;8.606;2024-02-28T11:20:56;16.3092;;;29.8563;;
43413;SDS011;73638;49.676;8.606;2024-02-28T11:26:03;16.3115;;;29.2356;;
43413;SDS011;73638;49.676;8.606;2024-02-28T11:31:10;16.3155;;;35.8723;;
43413;SDS011;73638;49.676;8.606;2024-02-28T11:36:16;14.759;;;26.5031;;
43413;SDS011;73638;49.676;8.606;2024-02-28T11:41:25;15.3324;;;28.4642;;
43413;SDS011;73638;49.676;8.606;2024-02-28T11:46:30;15.599;;;27.2062;;
43413;SDS011;73638;49.676;8.606;2024-02-28T11:51:37;14.2683;;;25.9651;;
43413;SDS011;73638;49.676;8.606;2024-02-28T11:56:44;14.9231;;;26.7176;;
43413;SDS011;73638;49.676;8.606;2024-02-28T12:01:51;14.205;;;24.8451;;
43413;SDS011;73638;49.676;8.606;2024-02-28T12:06:58;13.9117;;;26.0701;;
43413;SDS011;73638;49.676;8.606;2024-02-28T12:12:06;14.5536;;;29.021;;
43413;SDS011;73638;49.676;8.606;2024-02-28T12:17:12;14.3853;;;26.9203;;
43413;SDS011;73638;49.676;8.606;2024-02-28T12:22:19;12.882;;;21.7342;;
43413;SDS011;73638;49.676;8.606;2024-02-28T12:27:26;12.6624;;;21.6864;;
43413;SDS011;73638;49.676;8.606;2024-02-28T12:32:33;12.7997;;;24.9278;;
43413;SDS011;73638;49.676;8.606;2024-02-28T12:37:39;13.3175;;;22.8567;;
43413;SDS011;73638;49.676;8.606;2024-02-28T12:42:46;12.0928;;;22.6229;;
43413;SDS011;73638;49.676;8.606;2024-02-28T12:47:53;11.662;;;19.6591;;
43413;SDS011;73638;49.676;8.606;2024-02-28T12:53:00;11.3678;;;18.9879;;
43413;SDS011;73638;49.676;8.606;2024-02-28T12:58:07;10.4602;;;17.5988;;
43413;SDS011;73638;49.676;8.606;2024-02-28T13:03:14;10.9254;;;17.6993;;
43413;SDS011;73638;49.676;8.606;2024-02-28T13:08:21;10.8596;;;20.0674;;
43413;SDS011;73638;49.676;8.606;2024-02-28T13:13:27;10.354;;;17.5178;;
43413;SDS011;73638;49.676;8.606;2024-02-28T13:18:34;10.5618;;;19.5343;;
43413;SDS011;73638;49.676;8.606;2024-02-28T13:23:41;10.2991;;;18.257;;
43413;SDS011;73638;49.676;8.606;2024-02-28T13:28:53;10.8007;;;19.9662;;
43413;SDS011;73638;49.676;8.606;2024-02-28T13:33:55;9.726;;;17.6956;;
43413;SDS011;73638;49.676;8.606;2024-02-28T13:39:02;9.5864;;;18.539;;
43413;SDS011;73638;49.676;8.606;2024-02-28T13:44:10;9.6652;;;18.1798;;
43413;SDS011;73638;49.676;8.606;2024-02-28T13:49:16;9.2603;;;16.2566;;
43413;SDS011;73638;49.676;8.606;2024-02-28T13:54:23;9.5309;;;14.5808;;
43413;SDS011;73638;49.676;8.606;2024-02-28T13:59:30;9.4001;;;16.5246;;
43413;SDS011;73638;49.676;8.606;2024-02-28T14:04:36;8.6905;;;16.2588;;
43413;SDS011;73638;49.676;8.606;2024-02-28T14:09:43;8.9086;;;14.5162;;
43413;SDS011;73638;49.676;8.606;2024-02-28T14:14:50;8.6963;;;14.7349;;
43413;SDS011;73638;49.676;8.606;2024-02-28T14:19:57;7.9649;;;12.4209;;
43413;SDS011;73638;49.676;8.606;2024-02-28T14:25:04;8.7222;;;15.4642;;
43413;SDS011;73638;49.676;8.606;2024-02-28T14:30:11;7.4459;;;17.0726;;
43413;SDS011;73638;49.676;8.606;2024-02-28T14:35:18;8.2763;;;14.8494;;
43413;SDS011;73638;49.676;8.606;2024-02-28T14:40:24;7.7535;;;15.3503;;
43413;SDS011;73638;49.676;8.606;2024-02-28T14:45:31;8.0271;;;13.6084;;
43413;SDS011;73638;49.676;8.606;2024-02-28T14:50:38;7.9228;;;13.9557;;
43413;SDS011;73638;49.676;8.606;2024-02-28T14:55:47;7.8118;;;12.3067;;
43413;SDS011;73638;49.676;8.606;2024-02-28T15:00:54;8.2997;;;14.1757;;
43413;SDS011;73638;49.676;8.606;2024-02-28T15:06:01;7.5388;;;12.6712;;
43413;SDS011;73638;49.676;8.606;2024-02-28T15:11:08;8.3526;;;13.8708;;
43413;SDS011;73638;49.676;8.606;2024-02-28T15:16:14;9.1927;;;16.3263;;
43413;SDS011;73638;49.676;8.606;2024-02-28T15:21:21;9.1712;;;14.6853;;
43413;SDS011;73638;49.676;8.606;2024-02-28T15:26:42;9.5902;;;16.2705;;
43413;SDS011;73638;49.676;8.606;2024-02-28T15:31:35;9.3442;;;16.7768;;
43413;SDS011;73638;49.676;8.606;2024-02-28T15:36:41;7.7703;;;12.4504;;
43413;SDS011;73638;49.676;8.606;2024-02-28T15:41:48;8.099;;;13.1456;;
43413;SDS011;73638;49.676;8.606;2024-02-28T15:46:55;8.0836;;;13.3498;;
43413;SDS011;73638;49.676;8.606;2024-02-28T15:52:02;8.3686;;;14.0636;;
43413;SDS011;73638;49.676;8.606;2024-02-28T15:57:09;8.8723;;;16.7159;;
43413;SDS011;73638;49.676;8.606;2024-02-28T16:02:15;7.1087;;;12.1611;;
43413;SDS011;73638;49.676;8.606;2024-02-28T16:07:22;8.4475;;;15.707;;
43413;SDS011;73638;49.676;8.606;2024-02-28T16:12:29;8.1117;;;13.3622;;
43413;SDS011;73638;49.676;8.606;2024-02-28T16:17:35;7.7157;;;14.3307;;
43413;SDS011;73638;49.676;8.606;2024-02-28T16:22:42;7.2946;;;12.757;;
43413;SDS011;73638;49.676;8.606;2024-02-28T16:27:49;8.0405;;;14.7101;;
43413;SDS011;73638;49.676;8.606;2024-02-28T16:32:56;7.5394;;;13.1855;;
43413;SDS011;73638;49.676;8.606;2024-02-28T16:38:03;8.0791;;;17.1243;;
43413;SDS011;73638;49.676;8.606;2024-02-28T16:43:09;7.8789;;;15.2656;;
43413;SDS011;73638;49.676;8.606;2024-02-28T16:48:21;7.0856;;;12.8773;;
43413;SDS011;73638;49.676;8.606;2024-02-28T16:53:22;7.3686;;;13.4888;;
43413;SDS011;73638;49.676;8.606;2024-02-28T16:58:29;7.6979;;;12.947;;
43413;SDS011;73638;49.676;8.606;2024-02-28T17:03:36;8.1692;;;14.7653;;
43413;SDS011;73638;49.676;8.606;2024-02-28T17:08:42;8.3464;;;17.1346;;
43413;SDS011;73638;49.676;8.606;2024-02-28T17:13:49;8.2193;;;15.5708;;
43413;SDS011;73638;49.676;8.606;2024-02-28T17:18:55;7.9697;;;13.4329;;
43413;SDS011;73638;49.676;8.606;2024-02-28T17:24:03;7.961;;;14.3626;;
43413;SDS011;73638;49.676;8.606;2024-02-28T17:29:09;8.2285;;;18.584;;
43413;SDS011;73638;49.676;8.606;2024-02-28T17:34:16;8.0854;;;13.8368;;
43413;SDS011;73638;49.676;8.606;2024-02-28T17:39:23;7.8163;;;13.9997;;
43413;SDS011;73638;49.676;8.606;2024-02-28T17:44:28;7.6101;;;13.836;;
43413;SDS011;73638;49.676;8.606;2024-02-28T17:49:35;7.9826;;;13.3558;;
43413;SDS011;73638;49.676;8.606;2024-02-28T17:54:42;8.676;;;14.4254;;
43413;SDS011;73638;49.676;8.606;2024-02-28T17:59:49;10.1128;;;18.4303;;
43413;SDS011;73638;49.676;8.606;2024-02-28T18:04:55;9.6687;;;18.3622;;
43413;SDS011;73638;49.676;8.606;2024-02-28T18:10:02;7.9111;;;15.03;;
43413;SDS011;73638;49.676;8.606;2024-02-28T18:15:09;8.5254;;;14.385;;
43413;SDS011;73638;49.676;8.606;2024-02-28T18:20:15;9.7956;;;15.9895;;
43413;SDS011;73638;49.676;8.606;2024-02-28T18:25:22;9.4544;;;18.6793;;
43413;SDS011;73638;49.676;8.606;2024-02-28T18:30:29;9.1867;;;16.4218;;
43413;SDS011;73638;49.676;8.606;2024-02-28T18:35:38;8.5845;;;17.3369;;
43413;SDS011;73638;49.676;8.606;2024-02-28T18:40:43;8.6924;;;15.3902;;
43413;SDS011;73638;49.676;8.606;2024-02-28T18:45:51;8.8014;;;15.101;;
43413;SDS011;73638;49.676;8.606;2024-02-28T18:50:57;8.6776;;;17.335;;
43413;SDS011;73638;49.676;8.606;2024-02-28T18:56:04;8.4254;;;15.6078;;
43413;SDS011;73638;49.676;8.606;2024-02-28T19:01:10;9.6539;;;16.174;;
43413;SDS011;73638;49.676;8.606;2024-02-28T19:06:16;11.173;;;23.4355;;
43413;SDS011;73638;49.676;8.606;2024-02-28T19:11:23;9.8135;;;16.4847;;
43413;SDS011;73638;49.676;8.606;2024-02-28T19:16:30;9.2645;;;20.3155;;
43413;SDS011;73638;49.676;8.606;2024-02-28T19:21:38;10.3034;;;18.911;;
43413;SDS011;73638;49.676;8.606;2024-02-28T19:26:43;10.6151;;;19.7928;;
43413;SDS011;73638;49.676;8.606;2024-02-28T19:31:50;10.5534;;;19.0357;;
43413;SDS011;73638;49.676;8.606;2024-02-28T19:36:56;9.8577;;;18.7517;;
43413;SDS011;73638;49.676;8.606;2024-02-28T19:42:03;10.1836;;;18.7327;;
43413;SDS011;73638;49.676;8.606;2024-02-28T19:47:09;8.6476;;;17.7071;;
43413;SDS011;73638;49.676;8.606;2024-02-28T19:52:16;8.4648;;;14.5585;;
43413;SDS011;73638;49.676;8.606;2024-02-28T19:57:23;8.8709;;;15.5173;;
43413;SDS011;73638;49.676;8.606;2024-02-28T20:02:29;11.1387;;;19.8444;;
43413;SDS011;73638;49.676;8.606;2024-02-28T20:07:38;9.7392;;;17.0059;;
43413;SDS011;73638;49.676;8.606;2024-02-28T20:12:44;9.0248;;;17.8229;;
43413;SDS011;73638;49.676;8.606;2024-02-28T20:17:50;8.6296;;;16.1057;;
43413;SDS011;73638;49.676;8.606;2024-02-28T20:22:57;8.651;;;19.5839;;
43413;SDS011;73638;49.676;8.606;2024-02-28T20:28:04;9.9121;;;15.7068;;
43413;SDS011;73638;49.676;8.606;2024-02-28T20:33:10;9.7254;;;16.7746;;
43413;SDS011;73638;49.676;8.606;2024-02-28T20:38:17;9.2228;;;16.1473;;
43413;SDS011;73638;49.676;8.606;2024-02-28T20:43:24;10.181;;;18.965;;
43413;SDS011;73638;49.676;8.606;2024-02-28T20:48:30;10.4284;;;22.3676;;
43413;SDS011;73638;49.676;8.606;2024-02-28T20:53:37;10.4775;;;23.6384;;
43413;SDS011;73638;49.676;8.606;2024-02-28T20:58:43;10.5255;;;18.6049;;
43413;SDS011;73638;49.676;8.606;2024-02-28T21:03:50;8.8827;;;15.7967;;
43413;SDS011;73638;49.676;8.606;2024-02-28T21:08:56;9.8226;;;16.6426;;
43413;SDS011;73638;49.676;8.606;2024-02-28T21:14:02;9.839;;;16.847;;
43413;SDS011;73638;49.676;8.606;2024-02-28T21:19:09;9.3111;;;17.0731;;
43413;SDS011;73638;49.676;8.606;2024-02-28T21:24:16;9.0375;;;14.1312;;
43413;SDS011;73638;49.676;8.606;2024-02-28T21:29:22;10.7613;;;18.8671;;
43413;SDS011;73638;49.676;8.606;2024-02-28T21:34:29;10.0087;;;17.6301;;
43413;SDS011;73638;49.676;8.606;2024-02-28T21:39:35;9.6442;;;15.474;;
43413;SDS011;73638;49.676;8.606;2024-02-28T21:44:42;9.9914;;;19.3465;;
43413;SDS011;73638;49.676;8.606;2024-02-28T21:49:48;15.5921;;;34.1591;;
43413;SDS011;73638;49.676;8.606;2024-02-28T21:54:55;13.318;;;25.6893;;
43413;SDS011;73638;49.676;8.606;2024-02-28T22:00:01;10.863;;;20.1948;;
43413;SDS011;73638;49.676;8.606;2024-02-28T22:05:08;10.3464;;;23.1446;;
43413;SDS011;73638;49.676;8.606;2024-02-28T22:10:15;14.5064;;;34.5407;;
43413;SDS011;73638;49.676;8.606;2024-02-28T22:15:21;18.4143;;;39.0219;;
43413;SDS011;73638;49.676;8.606;2024-02-28T22:20:27;11.7518;;;26.4483;;
43413;SDS011;73638;49.676;8.606;2024-02-28T22:25:34;13.917;;;32.5162;;
43413;SDS011;73638;49.676;8.606;2024-02-28T22:30:40;12.2605;;;23.6027;;
43413;SDS011;73638;49.676;8.606;2024-02-28T22:35:46;9.5438;;;18.2861;;
43413;SDS011;73638;49.676;8.606;2024-02-28T22:40:53;10.8488;;;22.1988;;
43413;SDS011;73638;49.676;8.606;2024-02-28T22:45:59;10.449;;;20.0572;;
43413;SDS011;73638;49.676;8.606;2024-02-28T22:51:06;10.191;;;20.0981;;
43413;SDS011;73638;49.676;8.606;2024-02-28T22:56:12;9.9202;;;21.8376;;
43413;SDS011;73638;49.676;8.606;2024-02-28T23:01:19;10.7516;;;24.666;;
43413;SDS011;73638;49.676;8.606;2024-02-28T23:06:25;10.2788;;;23.709;;
43413;SDS011;73638;49.676;8.606;2024-02-28T23:11:32;9.494;;;18.2274;;
43413;SDS011;73638;49.676;8.606;2024-02-28T23:16:38;15.1156;;;36.7725;;
43413;SDS011;73638;49.676;8.606;2024-02-28T23:21:45;11.1651;;;26.2034;;
43413;SDS011;73638;49.676;8.606;2024-02-28T23:26:51;12.7725;;;28.9372;;
43413;SDS011;73638;49.676;8.606;2024-02-28T23:31:58;9.9395;;;17.9441;;
43413;SDS011;73638;49.676;8.606;2024-02-28T23:37:04;10.8737;;;21.2966;;
43413;SDS011;73638;49.676;8.606;2024-02-28T23:42:11;11.3665;;;22.7025;;
43413;SDS011;73638;49.676;8.606;2024-02-28T23:47:17;16.2758;;;35.3295;;
43413;SDS011;73638;49.676;8.606;2024-02-28T23:52:24;12.3309;;;25.7234;;
43413;SDS011;73638;49.676;8.606;2024-02-28T23:57:31;15.8217;;;36.6692;;
